sensor_id;sensor_type;location;lat;lon;timestamp;pressure;altitude;pressure_sealevel;temperature;humidity
11223;BME280;5668;52.012;8.724;2024-01-27T00:02:23;101750.09;;;6.82;92.41
11223;BME280;5668;52.012;8.724;2024-01-27T00:04:50;101757.94;;;6.79;93.01
11223;BME280;5668;52.012;8.724;2024-01-27T00:07:17;101759.72;;;6.77;93.26
11223;BME280;5668;52.012;8.724;2024-01-27T00:09:45;101758.13;;;6.73;92.88
11223;BME280;5668;52.012;8.724;2024-01-27T00:12:12;101765.84;;;6.75;93.62
11223;BME280;5668;52.012;8.724;2024-01-27T00:14:39;101772.69;;;6.76;92.92
11223;BME280;5668;52.012;8.724;2024-01-27T00:17:06;101770.19;;;6.73;92.74
11223;BME280;5668;52.012;8.724;2024-01-27T00:19:35;101768.50;;;6.72;93.38
11223;BME280;5668;52.012;8.724;2024-01-27T00:22:02;101779.03;;;6.66;93.03
11223;BME280;5668;52.012;8.724;2024-01-27T00:24:29;101778.09;;;6.68;93.80
11223;BME280;5668;52.012;8.724;2024-01-27T00:26:57;101774.59;;;6.69;93.79
11223;BME280;5668;52.012;8.724;2024-01-27T00:29:24;101782.41;;;6.68;93.10
11223;BME280;5668;52.012;8.724;2024-01-27T00:31:52;101788.47;;;6.67;92.86
11223;BME280;5668;52.012;8.724;2024-01-27T00:34:20;101778.22;;;6.64;93.05
11223;BME280;5668;52.012;8.724;2024-01-27T00:36:49;101781.81;;;6.59;93.33
11223;BME280;5668;52.012;8.724;2024-01-27T00:39:16;101780.91;;;6.60;93.40
11223;BME280;5668;52.012;8.724;2024-01-27T00:41:43;101790.41;;;6.60;92.99
11223;BME280;5668;52.012;8.724;2024-01-27T00:44:11;101791.25;;;6.60;93.45
11223;BME280;5668;52.012;8.724;2024-01-27T00:46:38;101787.75;;;6.61;93.39
11223;BME280;5668;52.012;8.724;2024-01-27T00:49:05;101794.75;;;6.58;93.41
11223;BME280;5668;52.012;8.724;2024-01-27T00:51:32;101784.47;;;6.56;92.88
11223;BME280;5668;52.012;8.724;2024-01-27T00:54:01;101789.72;;;6.53;93.33
11223;BME280;5668;52.012;8.724;2024-01-27T00:56:28;101791.50;;;6.51;92.85
11223;BME280;5668;52.012;8.724;2024-01-27T00:58:55;101807.00;;;6.51;93.98
11223;BME280;5668;52.012;8.724;2024-01-27T01:01:22;101799.25;;;6.51;93.85
11223;BME280;5668;52.012;8.724;2024-01-27T01:03:50;101811.28;;;6.52;93.67
11223;BME280;5668;52.012;8.724;2024-01-27T01:06:17;101809.63;;;6.50;93.66
11223;BME280;5668;52.012;8.724;2024-01-27T01:08:44;101805.31;;;6.50;93.31
11223;BME280;5668;52.012;8.724;2024-01-27T01:11:13;101807.19;;;6.45;93.74
11223;BME280;5668;52.012;8.724;2024-01-27T01:13:40;101814.13;;;6.43;93.34
11223;BME280;5668;52.012;8.724;2024-01-27T01:16:08;101812.47;;;6.41;94.04
11223;BME280;5668;52.012;8.724;2024-01-27T01:18:35;101818.50;;;6.40;93.53
11223;BME280;5668;52.012;8.724;2024-01-27T01:21:02;101817.66;;;6.39;93.80
11223;BME280;5668;52.012;8.724;2024-01-27T01:23:29;101813.41;;;6.38;93.73
11223;BME280;5668;52.012;8.724;2024-01-27T01:25:56;101814.34;;;6.36;94.04
11223;BME280;5668;52.012;8.724;2024-01-27T01:28:25;101812.66;;;6.33;93.68
11223;BME280;5668;52.012;8.724;2024-01-27T01:30:52;101814.53;;;6.28;94.59
11223;BME280;5668;52.012;8.724;2024-01-27T01:33:19;101816.31;;;6.26;94.69
11223;BME280;5668;52.012;8.724;2024-01-27T01:35:47;101818.94;;;6.25;94.21
11223;BME280;5668;52.012;8.724;2024-01-27T01:38:14;101823.19;;;6.27;95.06
11223;BME280;5668;52.012;8.724;2024-01-27T01:40:41;101825.00;;;6.24;94.45
11223;BME280;5668;52.012;8.724;2024-01-27T01:43:10;101826.75;;;6.23;94.50
11223;BME280;5668;52.012;8.724;2024-01-27T01:45:39;101822.50;;;6.20;94.48
11223;BME280;5668;52.012;8.724;2024-01-27T01:48:07;101824.22;;;6.20;94.91
11223;BME280;5668;52.012;8.724;2024-01-27T01:50:36;101821.69;;;6.18;94.51
11223;BME280;5668;52.012;8.724;2024-01-27T01:53:04;101823.41;;;6.18;94.75
11223;BME280;5668;52.012;8.724;2024-01-27T01:55:31;101827.81;;;6.16;94.60
11223;BME280;5668;52.012;8.724;2024-01-27T01:57:59;101820.97;;;6.13;94.83
11223;BME280;5668;52.012;8.724;2024-01-27T02:00:26;101823.53;;;6.15;94.70
11223;BME280;5668;52.012;8.724;2024-01-27T02:02:54;101827.00;;;6.14;95.49
11223;BME280;5668;52.012;8.724;2024-01-27T02:05:21;101828.75;;;6.12;94.53
11223;BME280;5668;52.012;8.724;2024-01-27T02:07:49;101821.91;;;6.11;94.80
11223;BME280;5668;52.012;8.724;2024-01-27T02:10:18;101818.53;;;6.09;94.68
11223;BME280;5668;52.012;8.724;2024-01-27T02:12:45;101825.44;;;6.08;94.84
11223;BME280;5668;52.012;8.724;2024-01-27T02:15:13;101825.50;;;6.05;94.43
11223;BME280;5668;52.012;8.724;2024-01-27T02:17:41;101831.53;;;6.04;94.76
11223;BME280;5668;52.012;8.724;2024-01-27T02:20:11;101827.22;;;6.05;95.24
11223;BME280;5668;52.012;8.724;2024-01-27T02:22:39;101823.78;;;6.06;95.51
11223;BME280;5668;52.012;8.724;2024-01-27T02:25:08;101825.47;;;6.07;94.53
11223;BME280;5668;52.012;8.724;2024-01-27T02:27:35;101823.84;;;6.03;95.08
11223;BME280;5668;52.012;8.724;2024-01-27T02:30:03;101825.53;;;6.04;94.89
11223;BME280;5668;52.012;8.724;2024-01-27T02:32:30;101834.16;;;6.03;95.62
11223;BME280;5668;52.012;8.724;2024-01-27T02:34:57;101849.63;;;6.03;94.92
11223;BME280;5668;52.012;8.724;2024-01-27T02:37:24;101842.03;;;5.98;94.80
11223;BME280;5668;52.012;8.724;2024-01-27T02:39:51;101840.34;;;5.97;95.06
11223;BME280;5668;52.012;8.724;2024-01-27T02:42:20;101840.34;;;5.97;95.38
11223;BME280;5668;52.012;8.724;2024-01-27T02:44:47;101836.91;;;5.97;95.75
11223;BME280;5668;52.012;8.724;2024-01-27T02:47:14;101834.47;;;5.92;94.89
11223;BME280;5668;52.012;8.724;2024-01-27T02:49:42;101837.91;;;5.91;95.71
11223;BME280;5668;52.012;8.724;2024-01-27T02:52:09;101835.34;;;5.91;95.63
11223;BME280;5668;52.012;8.724;2024-01-27T02:54:36;101834.50;;;5.91;95.03
11223;BME280;5668;52.012;8.724;2024-01-27T02:57:04;101836.25;;;5.89;95.76
11223;BME280;5668;52.012;8.724;2024-01-27T02:59:32;101837.16;;;5.86;95.37
11223;BME280;5668;52.012;8.724;2024-01-27T03:07:04;101836.25;;;5.89;95.16
11223;BME280;5668;52.012;8.724;2024-01-27T03:09:32;101843.13;;;5.90;95.41
11223;BME280;5668;52.012;8.724;2024-01-27T03:11:59;101839.69;;;5.89;95.76
11223;BME280;5668;52.012;8.724;2024-01-27T03:14:26;101845.69;;;5.90;95.42
11223;BME280;5668;52.012;8.724;2024-01-27T03:16:55;101837.88;;;5.93;95.77
11223;BME280;5668;52.012;8.724;2024-01-27T03:19:22;101848.09;;;5.96;95.32
11223;BME280;5668;52.012;8.724;2024-01-27T03:21:49;101857.50;;;5.98;95.72
11223;BME280;5668;52.012;8.724;2024-01-27T03:24:16;101855.75;;;6.00;95.48
11223;BME280;5668;52.012;8.724;2024-01-27T03:26:43;101854.91;;;6.00;95.15
11223;BME280;5668;52.012;8.724;2024-01-27T03:29:11;101861.94;;;5.93;94.82
11223;BME280;5668;52.012;8.724;2024-01-27T03:31:38;101870.47;;;5.95;95.21
11223;BME280;5668;52.012;8.724;2024-01-27T03:34:07;101873.91;;;5.96;95.02
11223;BME280;5668;52.012;8.724;2024-01-27T03:36:34;101865.38;;;5.94;94.45
11223;BME280;5668;52.012;8.724;2024-01-27T03:39:01;101878.34;;;5.91;94.74
11223;BME280;5668;52.012;8.724;2024-01-27T03:41:29;101876.66;;;5.90;94.69
11223;BME280;5668;52.012;8.724;2024-01-27T03:43:56;101869.78;;;5.89;94.82
11223;BME280;5668;52.012;8.724;2024-01-27T03:46:23;101876.63;;;5.91;95.00
11223;BME280;5668;52.012;8.724;2024-01-27T03:48:51;101884.38;;;5.90;94.85
11223;BME280;5668;52.012;8.724;2024-01-27T03:51:19;101888.72;;;5.88;95.04
11223;BME280;5668;52.012;8.724;2024-01-27T03:53:46;101881.91;;;5.85;94.60
11223;BME280;5668;52.012;8.724;2024-01-27T03:56:14;101894.91;;;5.80;94.79
11223;BME280;5668;52.012;8.724;2024-01-27T03:58:41;101892.31;;;5.80;95.02
11223;BME280;5668;52.012;8.724;2024-01-27T04:01:10;101888.13;;;5.76;95.24
11223;BME280;5668;52.012;8.724;2024-01-27T04:03:37;101894.19;;;5.74;94.40
11223;BME280;5668;52.012;8.724;2024-01-27T04:06:05;101888.28;;;5.70;95.20
11223;BME280;5668;52.012;8.724;2024-01-27T04:08:33;101883.13;;;5.70;94.87
11223;BME280;5668;52.012;8.724;2024-01-27T04:11:01;101903.78;;;5.69;94.96
11223;BME280;5668;52.012;8.724;2024-01-27T04:13:28;101896.97;;;5.66;95.17
11223;BME280;5668;52.012;8.724;2024-01-27T04:15:55;101896.97;;;5.66;95.71
11223;BME280;5668;52.012;8.724;2024-01-27T04:18:25;101893.50;;;5.67;95.38
11223;BME280;5668;52.012;8.724;2024-01-27T04:20:52;101883.19;;;5.67;95.12
11223;BME280;5668;52.012;8.724;2024-01-27T04:23:19;101871.22;;;5.65;95.55
11223;BME280;5668;52.012;8.724;2024-01-27T04:25:48;101874.63;;;5.65;95.61
11223;BME280;5668;52.012;8.724;2024-01-27T04:28:15;101878.09;;;5.64;95.34
11223;BME280;5668;52.012;8.724;2024-01-27T04:30:42;101867.72;;;5.67;95.25
11223;BME280;5668;52.012;8.724;2024-01-27T04:33:11;101871.22;;;5.65;95.33
11223;BME280;5668;52.012;8.724;2024-01-27T04:35:38;101866.03;;;5.66;95.64
11223;BME280;5668;52.012;8.724;2024-01-27T04:38:05;101866.97;;;5.64;94.96
11223;BME280;5668;52.012;8.724;2024-01-27T04:40:34;101873.00;;;5.63;94.98
11223;BME280;5668;52.012;8.724;2024-01-27T04:43:03;101872.19;;;5.61;95.35
11223;BME280;5668;52.012;8.724;2024-01-27T04:45:31;101872.19;;;5.61;95.75
11223;BME280;5668;52.012;8.724;2024-01-27T04:47:58;101867.88;;;5.61;95.67
11223;BME280;5668;52.012;8.724;2024-01-27T04:50:27;101873.88;;;5.62;95.58
11223;BME280;5668;52.012;8.724;2024-01-27T04:52:54;101890.19;;;5.62;95.77
11223;BME280;5668;52.012;8.724;2024-01-27T04:55:21;101891.09;;;5.61;95.90
11223;BME280;5668;52.012;8.724;2024-01-27T04:57:48;101898.72;;;5.64;95.78
11223;BME280;5668;52.012;8.724;2024-01-27T05:00:17;101898.81;;;5.61;95.20
11223;BME280;5668;52.012;8.724;2024-01-27T05:05:13;101911.50;;;5.70;95.90
11223;BME280;5668;52.012;8.724;2024-01-27T05:07:40;101908.06;;;5.70;95.14
11223;BME280;5668;52.012;8.724;2024-01-27T05:10:11;101912.28;;;5.72;95.39
11223;BME280;5668;52.012;8.724;2024-01-27T05:12:39;101915.75;;;5.71;95.54
11223;BME280;5668;52.012;8.724;2024-01-27T05:15:06;101906.38;;;5.69;95.48
11223;BME280;5668;52.012;8.724;2024-01-27T05:17:34;101917.44;;;5.72;95.37
11223;BME280;5668;52.012;8.724;2024-01-27T05:20:01;101909.78;;;5.71;95.25
11223;BME280;5668;52.012;8.724;2024-01-27T05:22:31;101917.44;;;5.72;95.77
11223;BME280;5668;52.012;8.724;2024-01-27T05:24:58;101923.56;;;5.68;95.19
11223;BME280;5668;52.012;8.724;2024-01-27T05:27:26;101922.75;;;5.66;95.11
11223;BME280;5668;52.012;8.724;2024-01-27T05:29:53;101928.72;;;5.68;95.71
11223;BME280;5668;52.012;8.724;2024-01-27T05:32:20;101937.34;;;5.67;95.20
11223;BME280;5668;52.012;8.724;2024-01-27T05:34:47;101937.34;;;5.67;94.95
11223;BME280;5668;52.012;8.724;2024-01-27T05:37:14;101939.97;;;5.64;95.16
11223;BME280;5668;52.012;8.724;2024-01-27T05:39:43;101931.50;;;5.61;94.84
11223;BME280;5668;52.012;8.724;2024-01-27T05:42:10;101929.91;;;5.55;95.69
11223;BME280;5668;52.012;8.724;2024-01-27T05:44:37;101924.66;;;5.58;95.39
11223;BME280;5668;52.012;8.724;2024-01-27T05:47:06;101923.81;;;5.58;95.32
11223;BME280;5668;52.012;8.724;2024-01-27T05:49:33;101922.16;;;5.55;94.93
11223;BME280;5668;52.012;8.724;2024-01-27T05:52:00;101926.50;;;5.53;94.91
11223;BME280;5668;52.012;8.724;2024-01-27T05:54:28;101932.53;;;5.52;95.60
11223;BME280;5668;52.012;8.724;2024-01-27T05:56:56;101936.88;;;5.50;95.56
11223;BME280;5668;52.012;8.724;2024-01-27T05:59:24;101924.88;;;5.49;95.33
11223;BME280;5668;52.012;8.724;2024-01-27T06:01:51;101932.66;;;5.48;95.66
11223;BME280;5668;52.012;8.724;2024-01-27T06:04:18;101939.56;;;5.45;95.30
11223;BME280;5668;52.012;8.724;2024-01-27T06:06:45;101931.03;;;5.43;95.15
11223;BME280;5668;52.012;8.724;2024-01-27T06:09:13;101941.34;;;5.42;95.64
11223;BME280;5668;52.012;8.724;2024-01-27T06:11:40;101937.03;;;5.44;95.78
11223;BME280;5668;52.012;8.724;2024-01-27T06:14:09;101939.53;;;5.47;95.63
11223;BME280;5668;52.012;8.724;2024-01-27T06:16:36;101944.75;;;5.44;95.74
11223;BME280;5668;52.012;8.724;2024-01-27T06:19:03;101955.94;;;5.43;95.63
11223;BME280;5668;52.012;8.724;2024-01-27T06:21:30;101955.94;;;5.43;95.38
11223;BME280;5668;52.012;8.724;2024-01-27T06:23:58;101955.19;;;5.39;95.65
11223;BME280;5668;52.012;8.724;2024-01-27T06:26:25;101961.09;;;5.43;95.90
11223;BME280;5668;52.012;8.724;2024-01-27T06:28:52;101962.03;;;5.40;95.91
11223;BME280;5668;52.012;8.724;2024-01-27T06:31:21;101969.81;;;5.39;95.95
11223;BME280;5668;52.012;8.724;2024-01-27T06:33:48;101973.25;;;5.38;96.55
11223;BME280;5668;52.012;8.724;2024-01-27T06:36:15;101973.25;;;5.38;95.87
11223;BME280;5668;52.012;8.724;2024-01-27T06:38:42;101975.81;;;5.39;95.81
11223;BME280;5668;52.012;8.724;2024-01-27T06:41:10;101981.84;;;5.38;95.92
11223;BME280;5668;52.012;8.724;2024-01-27T06:43:37;101976.72;;;5.37;96.48
11223;BME280;5668;52.012;8.724;2024-01-27T06:46:05;101978.47;;;5.35;96.07
11223;BME280;5668;52.012;8.724;2024-01-27T06:48:33;101981.97;;;5.32;96.61
11223;BME280;5668;52.012;8.724;2024-01-27T06:51:00;101991.41;;;5.33;96.06
11223;BME280;5668;52.012;8.724;2024-01-27T06:53:28;101991.47;;;5.30;96.23
11223;BME280;5668;52.012;8.724;2024-01-27T06:55:55;101995.91;;;5.24;96.11
11223;BME280;5668;52.012;8.724;2024-01-27T06:58:22;102003.69;;;5.21;96.17
11223;BME280;5668;52.012;8.724;2024-01-27T07:00:49;101999.41;;;5.20;96.47
11223;BME280;5668;52.012;8.724;2024-01-27T07:03:17;101995.94;;;5.21;96.64
11223;BME280;5668;52.012;8.724;2024-01-27T07:05:45;102006.25;;;5.21;97.17
11223;BME280;5668;52.012;8.724;2024-01-27T07:08:13;102012.38;;;5.17;96.89
11223;BME280;5668;52.012;8.724;2024-01-27T07:10:40;102016.69;;;5.15;96.89
11223;BME280;5668;52.012;8.724;2024-01-27T07:13:07;102022.75;;;5.12;97.10
11223;BME280;5668;52.012;8.724;2024-01-27T07:15:34;102023.69;;;5.08;96.71
11223;BME280;5668;52.012;8.724;2024-01-27T07:18:04;102025.47;;;5.04;97.32
11223;BME280;5668;52.012;8.724;2024-01-27T07:20:31;102028.03;;;5.04;97.35
11223;BME280;5668;52.012;8.724;2024-01-27T07:23:00;102027.28;;;5.01;97.53
11223;BME280;5668;52.012;8.724;2024-01-27T07:25:27;102032.41;;;5.02;97.83
11223;BME280;5668;52.012;8.724;2024-01-27T07:27:55;102033.28;;;5.01;98.00
11223;BME280;5668;52.012;8.724;2024-01-27T07:30:23;102035.84;;;5.01;98.22
11223;BME280;5668;52.012;8.724;2024-01-27T07:32:53;102030.69;;;5.01;98.34
11223;BME280;5668;52.012;8.724;2024-01-27T07:35:21;102035.84;;;5.01;98.28
11223;BME280;5668;52.012;8.724;2024-01-27T07:37:48;102038.44;;;5.00;98.23
11223;BME280;5668;52.012;8.724;2024-01-27T07:40:17;102034.97;;;5.02;98.31
11223;BME280;5668;52.012;8.724;2024-01-27T07:45:12;102035.03;;;4.99;98.18
11223;BME280;5668;52.012;8.724;2024-01-27T07:47:39;102037.66;;;4.96;98.07
11223;BME280;5668;52.012;8.724;2024-01-27T07:50:08;102035.06;;;4.96;98.58
11223;BME280;5668;52.012;8.724;2024-01-27T07:52:37;102047.16;;;4.93;98.35
11223;BME280;5668;52.012;8.724;2024-01-27T07:55:05;102040.34;;;4.89;98.24
11223;BME280;5668;52.012;8.724;2024-01-27T07:57:32;102038.63;;;4.89;98.53
11223;BME280;5668;52.012;8.724;2024-01-27T08:00:00;102041.28;;;4.86;98.35
11223;BME280;5668;52.012;8.724;2024-01-27T08:02:28;102037.03;;;4.84;98.71
11223;BME280;5668;52.012;8.724;2024-01-27T08:04:56;102039.59;;;4.85;99.01
11223;BME280;5668;52.012;8.724;2024-01-27T08:07:23;102036.19;;;4.83;98.42
11223;BME280;5668;52.012;8.724;2024-01-27T08:09:50;102045.63;;;4.83;98.94
11223;BME280;5668;52.012;8.724;2024-01-27T08:12:18;102042.19;;;4.84;98.93
11223;BME280;5668;52.012;8.724;2024-01-27T08:14:45;102044.75;;;4.84;99.19
11223;BME280;5668;52.012;8.724;2024-01-27T08:17:12;102039.63;;;4.82;99.10
11223;BME280;5668;52.012;8.724;2024-01-27T08:19:41;102042.22;;;4.82;99.00
11223;BME280;5668;52.012;8.724;2024-01-27T08:22:08;102052.50;;;4.82;99.39
11223;BME280;5668;52.012;8.724;2024-01-27T08:24:36;102053.38;;;4.81;99.37
11223;BME280;5668;52.012;8.724;2024-01-27T08:27:03;102055.09;;;4.82;99.38
11223;BME280;5668;52.012;8.724;2024-01-27T08:29:31;102056.75;;;4.85;99.73
11223;BME280;5668;52.012;8.724;2024-01-27T08:31:59;102050.78;;;4.83;99.33
11223;BME280;5668;52.012;8.724;2024-01-27T08:34:26;102054.22;;;4.83;99.53
11223;BME280;5668;52.012;8.724;2024-01-27T08:37:01;102061.88;;;4.86;99.65
11223;BME280;5668;52.012;8.724;2024-01-27T08:39:28;102070.50;;;4.85;99.91
11223;BME280;5668;52.012;8.724;2024-01-27T08:41:55;102069.63;;;4.86;100.00
11223;BME280;5668;52.012;8.724;2024-01-27T08:44:22;102069.53;;;4.91;99.94
11223;BME280;5668;52.012;8.724;2024-01-27T08:46:50;102073.81;;;4.90;100.00
11223;BME280;5668;52.012;8.724;2024-01-27T08:49:17;102070.34;;;4.94;99.99
11223;BME280;5668;52.012;8.724;2024-01-27T08:51:44;102069.47;;;4.95;99.81
11223;BME280;5668;52.012;8.724;2024-01-27T08:54:13;102061.72;;;4.95;99.94
11223;BME280;5668;52.012;8.724;2024-01-27T08:56:40;102060.81;;;4.98;99.67
11223;BME280;5668;52.012;8.724;2024-01-27T08:59:08;102064.22;;;4.98;100.00
11223;BME280;5668;52.012;8.724;2024-01-27T09:01:35;102061.63;;;5.01;99.75
11223;BME280;5668;52.012;8.724;2024-01-27T09:04:02;102051.22;;;5.06;99.96
11223;BME280;5668;52.012;8.724;2024-01-27T09:06:29;102048.59;;;5.09;100.00
11223;BME280;5668;52.012;8.724;2024-01-27T09:08:56;102053.63;;;5.14;99.99
11223;BME280;5668;52.012;8.724;2024-01-27T09:11:25;102058.81;;;5.12;99.85
11223;BME280;5668;52.012;8.724;2024-01-27T09:13:56;102067.34;;;5.16;99.65
11223;BME280;5668;52.012;8.724;2024-01-27T09:16:23;102076.72;;;5.20;99.50
11223;BME280;5668;52.012;8.724;2024-01-27T09:18:50;102081.84;;;5.21;100.00
11223;BME280;5668;52.012;8.724;2024-01-27T09:21:18;102077.53;;;5.22;99.81
11223;BME280;5668;52.012;8.724;2024-01-27T09:23:46;102089.50;;;5.26;99.77
11223;BME280;5668;52.012;8.724;2024-01-27T09:26:14;102081.72;;;5.27;99.70
11223;BME280;5668;52.012;8.724;2024-01-27T09:28:45;102074.78;;;5.31;99.41
11223;BME280;5668;52.012;8.724;2024-01-27T09:31:20;102091.09;;;5.33;99.70
11223;BME280;5668;52.012;8.724;2024-01-27T09:33:49;102084.13;;;5.36;99.94
11223;BME280;5668;52.012;8.724;2024-01-27T09:36:17;102090.94;;;5.40;99.73
11223;BME280;5668;52.012;8.724;2024-01-27T09:38:45;102093.44;;;5.42;99.46
11223;BME280;5668;52.012;8.724;2024-01-27T09:41:13;102091.69;;;5.44;99.65
11223;BME280;5668;52.012;8.724;2024-01-27T09:43:43;102100.19;;;5.49;98.94
11223;BME280;5668;52.012;8.724;2024-01-27T09:46:13;102102.72;;;5.52;98.81
11223;BME280;5668;52.012;8.724;2024-01-27T09:48:40;102100.13;;;5.52;98.70
11223;BME280;5668;52.012;8.724;2024-01-27T09:51:08;102110.44;;;5.52;99.31
11223;BME280;5668;52.012;8.724;2024-01-27T09:53:36;102100.94;;;5.56;99.38
11223;BME280;5668;52.012;8.724;2024-01-27T09:56:04;102103.41;;;5.60;99.19
11223;BME280;5668;52.012;8.724;2024-01-27T09:58:33;102113.66;;;5.63;98.92
11223;BME280;5668;52.012;8.724;2024-01-27T10:01:01;102114.44;;;5.67;99.10
11223;BME280;5668;52.012;8.724;2024-01-27T10:03:31;102121.28;;;5.69;98.48
11223;BME280;5668;52.012;8.724;2024-01-27T10:05:59;102128.06;;;5.73;98.60
11223;BME280;5668;52.012;8.724;2024-01-27T10:08:27;102126.28;;;5.77;98.63
11223;BME280;5668;52.012;8.724;2024-01-27T10:10:56;102122.81;;;5.78;98.45
11223;BME280;5668;52.012;8.724;2024-01-27T10:13:23;102122.75;;;5.81;98.36
11223;BME280;5668;52.012;8.724;2024-01-27T10:16:02;102121.84;;;5.83;98.24
11223;BME280;5668;52.012;8.724;2024-01-27T10:18:31;102120.91;;;5.88;98.69
11223;BME280;5668;52.012;8.724;2024-01-27T10:20:59;102118.25;;;5.92;98.38
11223;BME280;5668;52.012;8.724;2024-01-27T10:23:27;102119.84;;;5.98;98.84
11223;BME280;5668;52.012;8.724;2024-01-27T10:25:54;102115.38;;;6.06;98.26
11223;BME280;5668;52.012;8.724;2024-01-27T10:28:21;102111.03;;;6.08;98.01
11223;BME280;5668;52.012;8.724;2024-01-27T10:30:49;102107.47;;;6.12;97.96
11223;BME280;5668;52.012;8.724;2024-01-27T10:33:16;102108.22;;;6.17;98.63
11223;BME280;5668;52.012;8.724;2024-01-27T10:35:45;102105.44;;;6.26;98.30
11223;BME280;5668;52.012;8.724;2024-01-27T10:38:12;102100.13;;;6.32;97.90
11223;BME280;5668;52.012;8.724;2024-01-27T10:40:39;102093.91;;;6.41;97.68
11223;BME280;5668;52.012;8.724;2024-01-27T10:43:09;102093.69;;;6.50;98.09
11223;BME280;5668;52.012;8.724;2024-01-27T10:45:37;102085.81;;;6.54;97.17
11223;BME280;5668;52.012;8.724;2024-01-27T10:48:06;102080.53;;;6.60;97.65
11223;BME280;5668;52.012;8.724;2024-01-27T10:50:37;102079.47;;;6.68;96.89
11223;BME280;5668;52.012;8.724;2024-01-27T10:53:09;102080.16;;;6.74;96.43
11223;BME280;5668;52.012;8.724;2024-01-27T10:55:44;102072.06;;;6.88;96.49
11223;BME280;5668;52.012;8.724;2024-01-27T10:58:13;102072.69;;;6.96;96.43
11223;BME280;5668;52.012;8.724;2024-01-27T11:00:42;102076.66;;;7.09;96.13
11223;BME280;5668;52.012;8.724;2024-01-27T11:03:11;102074.75;;;7.16;95.87
11223;BME280;5668;52.012;8.724;2024-01-27T11:05:40;102075.41;;;7.22;95.11
11223;BME280;5668;52.012;8.724;2024-01-27T11:08:09;102077.75;;;7.31;94.42
11223;BME280;5668;52.012;8.724;2024-01-27T11:10:39;102076.81;;;7.34;94.64
11223;BME280;5668;52.012;8.724;2024-01-27T11:13:08;102069.72;;;7.42;94.53
11223;BME280;5668;52.012;8.724;2024-01-27T11:15:36;102061.81;;;7.47;94.14
11223;BME280;5668;52.012;8.724;2024-01-27T11:18:05;102062.38;;;7.56;93.41
11223;BME280;5668;52.012;8.724;2024-01-27T11:20:32;102063.75;;;7.68;92.59
11223;BME280;5668;52.012;8.724;2024-01-27T11:23:10;102057.69;;;7.69;91.65
11223;BME280;5668;52.012;8.724;2024-01-27T11:25:37;102061.78;;;7.76;91.76
11223;BME280;5668;52.012;8.724;2024-01-27T11:28:12;102057.84;;;7.92;92.52
11223;BME280;5668;52.012;8.724;2024-01-27T11:30:41;102059.41;;;7.98;90.94
11223;BME280;5668;52.012;8.724;2024-01-27T11:33:11;102063.59;;;8.02;90.62
11223;BME280;5668;52.012;8.724;2024-01-27T11:35:39;102060.91;;;8.05;89.44
11223;BME280;5668;52.012;8.724;2024-01-27T11:38:06;102059.78;;;8.13;89.31
11223;BME280;5668;52.012;8.724;2024-01-27T11:40:45;102056.91;;;8.23;89.03
11223;BME280;5668;52.012;8.724;2024-01-27T11:43:12;102060.28;;;8.25;87.97
11223;BME280;5668;52.012;8.724;2024-01-27T11:45:40;102062.72;;;8.29;87.33
11223;BME280;5668;52.012;8.724;2024-01-27T11:48:08;102067.00;;;8.32;86.63
11223;BME280;5668;52.012;8.724;2024-01-27T11:50:35;102066.88;;;8.35;86.43
11223;BME280;5668;52.012;8.724;2024-01-27T11:53:03;102070.06;;;8.43;86.85
11223;BME280;5668;52.012;8.724;2024-01-27T11:55:34;102067.22;;;8.50;86.15
11223;BME280;5668;52.012;8.724;2024-01-27T11:58:02;102076.66;;;8.53;85.58
11223;BME280;5668;52.012;8.724;2024-01-27T12:00:29;102076.34;;;8.62;86.00
11223;BME280;5668;52.012;8.724;2024-01-27T12:02:56;102083.97;;;8.67;86.48
11223;BME280;5668;52.012;8.724;2024-01-27T12:05:23;102091.50;;;8.74;85.97
11223;BME280;5668;52.012;8.724;2024-01-27T12:07:51;102086.22;;;8.77;85.38
11223;BME280;5668;52.012;8.724;2024-01-27T12:10:19;102084.31;;;8.82;85.12
11223;BME280;5668;52.012;8.724;2024-01-27T12:12:48;102085.91;;;8.86;84.77
11223;BME280;5668;52.012;8.724;2024-01-27T12:15:15;102093.72;;;8.85;83.43
11223;BME280;5668;52.012;8.724;2024-01-27T12:17:50;102098.09;;;8.83;82.14
11223;BME280;5668;52.012;8.724;2024-01-27T12:20:17;102093.78;;;8.83;82.27
11223;BME280;5668;52.012;8.724;2024-01-27T12:25:12;102097.13;;;8.87;82.25
11223;BME280;5668;52.012;8.724;2024-01-27T12:27:40;102098.88;;;8.86;82.33
11223;BME280;5668;52.012;8.724;2024-01-27T12:30:10;102100.78;;;8.80;81.33
11223;BME280;5668;52.012;8.724;2024-01-27T12:32:38;102098.16;;;8.81;81.64
11223;BME280;5668;52.012;8.724;2024-01-27T12:35:06;102102.63;;;8.78;81.27
11223;BME280;5668;52.012;8.724;2024-01-27T12:37:34;102094.97;;;8.73;81.32
11223;BME280;5668;52.012;8.724;2024-01-27T12:40:01;102100.06;;;8.76;81.96
11223;BME280;5668;52.012;8.724;2024-01-27T12:42:29;102095.09;;;8.70;81.27
11223;BME280;5668;52.012;8.724;2024-01-27T12:44:56;102095.19;;;8.67;80.39
11223;BME280;5668;52.012;8.724;2024-01-27T12:47:24;102093.66;;;8.62;80.36
11223;BME280;5668;52.012;8.724;2024-01-27T12:49:52;102096.03;;;8.68;81.50
11223;BME280;5668;52.012;8.724;2024-01-27T12:52:20;102088.22;;;8.69;81.16
11223;BME280;5668;52.012;8.724;2024-01-27T12:54:49;102095.09;;;8.70;80.43
11223;BME280;5668;52.012;8.724;2024-01-27T12:57:16;102099.53;;;8.67;80.01
11223;BME280;5668;52.012;8.724;2024-01-27T12:59:44;102102.28;;;8.62;80.94
11223;BME280;5668;52.012;8.724;2024-01-27T13:02:11;102104.81;;;8.64;80.57
11223;BME280;5668;52.012;8.724;2024-01-27T13:04:40;102098.78;;;8.63;80.26
11223;BME280;5668;52.012;8.724;2024-01-27T13:07:07;102094.50;;;8.62;80.11
11223;BME280;5668;52.012;8.724;2024-01-27T13:09:35;102091.69;;;8.68;80.55
11223;BME280;5668;52.012;8.724;2024-01-27T13:12:03;102082.28;;;8.66;80.12
11223;BME280;5668;52.012;8.724;2024-01-27T13:14:30;102080.53;;;8.66;79.70
11223;BME280;5668;52.012;8.724;2024-01-27T13:16:58;102085.88;;;8.62;79.62
11223;BME280;5668;52.012;8.724;2024-01-27T13:19:26;102085.03;;;8.61;79.27
11223;BME280;5668;52.012;8.724;2024-01-27T13:21:54;102078.16;;;8.60;79.63
11223;BME280;5668;52.012;8.724;2024-01-27T13:24:22;102074.75;;;8.58;79.71
11223;BME280;5668;52.012;8.724;2024-01-27T13:26:50;102076.44;;;8.59;79.76